createdAt,value
2022-10-09T00:01:15.012Z,100443.75
2022-10-09T00:06:21.703Z,100438.45
2022-10-09T00:11:27.476Z,100443.86
2022-10-09T00:16:30.735Z,100440.39
2022-10-09T00:21:34.657Z,100448.90
2022-10-09T00:26:37.515Z,100450.78
2022-10-09T00:31:40.320Z,100454.27
2022-10-09T00:36:43.323Z,100454.42
2022-10-09T00:41:46.126Z,100464.17
2022-10-09T00:46:51.592Z,100462.89
2022-10-09T00:51:56.952Z,100463.30
2022-10-09T00:57:00.452Z,100459.06
2022-10-09T01:02:03.418Z,100462.84
2022-10-09T01:07:35.570Z,100466.64
2022-10-09T01:12:54.724Z,100471.31
2022-10-09T01:18:04.822Z,100470.20
2022-10-09T01:23:53.092Z,100471.88
2022-10-09T01:29:00.035Z,100480.29
2022-10-09T01:34:04.337Z,100481.94
2022-10-09T01:39:09.587Z,100485.54
2022-10-09T01:44:32.661Z,100486.86
2022-10-09T01:49:50.009Z,100496.91
2022-10-09T01:55:10.930Z,100505.84
2022-10-09T02:00:14.942Z,100515.65
2022-10-09T02:05:24.930Z,100522.67
2022-10-09T02:10:28.046Z,100526.05
2022-10-09T02:15:45.957Z,100531.50
2022-10-09T02:20:52.182Z,100543.34
2022-10-09T02:25:55.395Z,100552.92
2022-10-09T02:31:11.387Z,100558.81
2022-10-09T02:36:14.916Z,100567.34
2022-10-09T02:41:17.821Z,100575.88
2022-10-09T02:46:21.443Z,100569.80
2022-10-09T02:51:25.328Z,100582.22
2022-10-09T02:56:29.097Z,100588.86
2022-10-09T03:01:32.073Z,100599.52
2022-10-09T03:06:35.956Z,100605.63
2022-10-09T03:11:39.035Z,100613.64
2022-10-09T03:16:41.938Z,100620.62
2022-10-09T03:21:44.848Z,100619.23
2022-10-09T03:26:47.644Z,100623.05
2022-10-09T03:31:53.194Z,100627.77
2022-10-09T03:36:56.529Z,100633.69
2022-10-09T03:41:59.430Z,100638.74
2022-10-09T03:47:02.286Z,100649.19
2022-10-09T03:52:05.236Z,100650.91
2022-10-09T03:57:08.140Z,100655.27
2022-10-09T04:02:10.981Z,100655.63
2022-10-09T04:07:13.948Z,100659.28
2022-10-09T04:12:16.750Z,100664.14
2022-10-09T04:17:19.551Z,100672.82
2022-10-09T04:22:22.352Z,100677.68
2022-10-09T04:27:25.257Z,100678.02
2022-10-09T04:32:28.060Z,100682.69
2022-10-09T04:37:30.963Z,100680.42
2022-10-09T04:42:33.763Z,100692.06
2022-10-09T04:47:36.876Z,100703.16
2022-10-09T04:52:39.681Z,100714.98
2022-10-09T04:57:42.580Z,100722.98
2022-10-09T05:02:45.535Z,100731.34
2022-10-09T05:07:48.650Z,100738.15
2022-10-09T05:12:51.603Z,100749.86
2022-10-09T05:17:54.720Z,100750.79
2022-10-09T05:22:57.612Z,100755.54
2022-10-09T05:28:00.516Z,100760.08
2022-10-09T05:33:03.420Z,100765.50
2022-10-09T05:38:06.429Z,100770.20
2022-10-09T05:43:09.329Z,100778.35
2022-10-09T05:48:12.234Z,100780.86
2022-10-09T05:53:15.181Z,100783.25
2022-10-09T05:58:18.039Z,100787.96
2022-10-09T06:03:20.945Z,100796.59
2022-10-09T06:08:23.950Z,100806.64
2022-10-09T06:13:26.857Z,100815.92
2022-10-09T06:18:30.483Z,100823.36
2022-10-09T06:23:34.030Z,100834.55
2022-10-09T06:28:36.931Z,100842.56
2022-10-09T06:33:41.849Z,100850.19
2022-10-09T06:38:45.180Z,100855.87
2022-10-09T06:44:16.065Z,100868.66
2022-10-09T06:49:19.643Z,100880.02
2022-10-09T06:54:22.754Z,100889.09
2022-10-09T06:59:25.554Z,100895.66
2022-10-09T07:04:28.466Z,100903.89
2022-10-09T07:09:31.568Z,100911.06
2022-10-09T07:14:34.475Z,100915.02
2022-10-09T07:19:37.477Z,100924.23
2022-10-09T07:24:40.295Z,100928.80
2022-10-09T07:29:43.387Z,100931.20
2022-10-09T07:34:46.189Z,100937.48
2022-10-09T07:39:48.992Z,100936.88
2022-10-09T07:44:51.802Z,100943.70
2022-10-09T07:49:54.699Z,100949.53
2022-10-09T07:54:57.702Z,100959.52
2022-10-09T08:00:00.606Z,100960.46
2022-10-09T08:05:03.690Z,100961.98
2022-10-09T08:10:07.224Z,100967.98
2022-10-09T08:15:10.245Z,100973.38
2022-10-09T08:20:13.144Z,100978.41
2022-10-09T08:25:16.148Z,100983.60
2022-10-09T08:30:19.305Z,100992.24
2022-10-09T08:35:22.163Z,100996.13
2022-10-09T08:40:36.231Z,100998.08
2022-10-09T08:45:40.667Z,101003.86
2022-10-09T08:50:51.686Z,101010.86
2022-10-09T08:55:57.644Z,101016.48
2022-10-09T09:01:12.783Z,101012.80
2022-10-09T09:06:30.990Z,101012.89
2022-10-09T09:12:00.520Z,101020.27
2022-10-09T09:17:24.622Z,101022.48
2022-10-09T09:22:28.116Z,101024.66
2022-10-09T09:27:34.421Z,101028.20
2022-10-09T09:32:51.119Z,101031.90
2022-10-09T09:37:54.567Z,101034.52
2022-10-09T09:43:04.834Z,101038.92
2022-10-09T09:48:23.415Z,101043.77
2022-10-09T09:53:32.157Z,101053.05
2022-10-09T09:58:45.265Z,101051.59
2022-10-09T10:03:54.350Z,101049.80
2022-10-09T10:09:05.732Z,101054.95
2022-10-09T10:14:13.777Z,101058.09
2022-10-09T10:19:29.991Z,101059.04
2022-10-09T10:24:41.834Z,101061.14
2022-10-09T10:29:46.954Z,101061.52
2022-10-09T10:34:54.306Z,101060.91
2022-10-09T10:40:13.716Z,101065.01
2022-10-09T10:45:23.424Z,101066.90
2022-10-09T10:50:36.467Z,101069.27
2022-10-09T10:55:59.270Z,101067.35
2022-10-09T11:01:27.586Z,101066.80
2022-10-09T11:06:44.731Z,101067.92
2022-10-09T11:12:24.876Z,101077.50
2022-10-09T11:17:54.638Z,101079.85
2022-10-09T11:23:12.949Z,101078.05
2022-10-09T11:28:23.086Z,101071.43
2022-10-09T11:33:37.089Z,101075.45
2022-10-09T11:38:46.122Z,101077.70
2022-10-09T11:43:58.153Z,101072.09
2022-10-09T11:49:19.901Z,101067.68
2022-10-09T11:54:24.708Z,101071.30
2022-10-09T11:59:36.665Z,101075.11
2022-10-09T12:04:55.780Z,101079.39
2022-10-09T12:10:07.466Z,101080.17
2022-10-09T12:15:24.093Z,101077.86
2022-10-09T12:20:28.363Z,101083.39
2022-10-09T12:25:40.684Z,101083.25
2022-10-09T12:30:48.869Z,101078.41
2022-10-09T12:36:06.151Z,101074.62
2022-10-09T12:41:23.353Z,101068.88
2022-10-09T12:46:33.219Z,101066.94
2022-10-09T12:51:38.990Z,101062.69
2022-10-09T12:56:42.652Z,101066.23
2022-10-09T13:01:53.871Z,101069.14
2022-10-09T13:07:05.941Z,101070.08
2022-10-09T13:12:23.787Z,101071.77
2022-10-09T13:17:38.062Z,101071.24
2022-10-09T13:22:41.025Z,101068.19
2022-10-09T13:27:43.967Z,101064.44
2022-10-09T13:32:50.070Z,101069.17
2022-10-09T13:37:53.100Z,101068.14
2022-10-09T13:43:01.493Z,101066.55
2022-10-09T13:48:08.691Z,101074.52
2022-10-09T13:53:12.044Z,101075.91
2022-10-09T13:58:14.915Z,101084.68
2022-10-09T14:03:18.321Z,101087.89
2022-10-09T14:08:21.944Z,101087.61
2022-10-09T14:13:24.754Z,101082.79
2022-10-09T14:18:27.650Z,101086.55
2022-10-09T14:23:30.454Z,101086.49
2022-10-09T14:28:34.072Z,101088.46
2022-10-09T14:33:49.266Z,101087.73
2022-10-09T14:38:53.499Z,101085.89
2022-10-09T14:43:59.581Z,101088.39
2022-10-09T14:49:07.544Z,101086.23
2022-10-09T14:54:12.352Z,101093.41
2022-10-09T14:59:15.149Z,101089.42
2022-10-09T15:04:18.020Z,101088.98
2022-10-09T15:09:20.958Z,101090.73
2022-10-09T15:14:23.972Z,101095.56
2022-10-09T15:19:26.870Z,101104.77
2022-10-09T15:24:30.388Z,101114.84
2022-10-09T15:29:33.322Z,101115.42
2022-10-09T15:34:40.626Z,101115.09
2022-10-09T15:39:44.121Z,101111.27
2022-10-09T15:44:47.019Z,101112.37
2022-10-09T15:49:53.322Z,101120.45
2022-10-09T15:54:56.515Z,101127.48
2022-10-09T15:59:59.317Z,101132.71
2022-10-09T16:05:02.322Z,101130.74
2022-10-09T16:10:05.795Z,101138.36
2022-10-09T16:15:09.390Z,101136.70
2022-10-09T16:20:12.265Z,101140.06
2022-10-09T16:25:15.271Z,101147.10
2022-10-09T16:30:18.174Z,101155.84
2022-10-09T16:35:22.601Z,101159.17
2022-10-09T16:40:49.970Z,101165.78
2022-10-09T16:45:48.394Z,101170.30
2022-10-09T16:50:51.195Z,101173.59
2022-10-09T16:55:54.095Z,101171.96
2022-10-09T17:01:03.923Z,101176.44
2022-10-09T17:06:13.938Z,101183.15
2022-10-09T17:11:17.559Z,101184.64
2022-10-09T17:16:22.383Z,101182.47
2022-10-09T17:21:28.141Z,101182.55
2022-10-09T17:26:35.087Z,101185.27
2022-10-09T17:31:37.983Z,101196.14
2022-10-09T17:36:42.424Z,101202.14
2022-10-09T17:41:47.218Z,101200.13
2022-10-09T17:46:50.400Z,101197.61
2022-10-09T17:51:54.721Z,101203.77
2022-10-09T17:57:00.401Z,101207.88
2022-10-09T18:02:03.680Z,101211.77
2022-10-09T18:07:06.910Z,101216.49
2022-10-09T18:12:10.023Z,101218.92
2022-10-09T18:17:13.743Z,101215.62
2022-10-09T18:22:16.848Z,101219.32
2022-10-09T18:27:20.709Z,101224.02
2022-10-09T18:32:23.470Z,101229.48
2022-10-09T18:37:26.793Z,101235.77
2022-10-09T18:42:29.796Z,101235.26
2022-10-09T18:47:35.205Z,101235.56
2022-10-09T18:52:40.007Z,101242.87
2022-10-09T18:57:43.384Z,101238.73
2022-10-09T19:02:46.343Z,101242.42
2022-10-09T19:07:49.482Z,101241.91
2022-10-09T19:12:54.492Z,101248.09
2022-10-09T19:17:57.297Z,101247.85
2022-10-09T19:23:00.198Z,101247.44
2022-10-09T19:28:03.121Z,101251.44
2022-10-09T19:33:06.109Z,101248.30
2022-10-09T19:38:09.120Z,101253.80
2022-10-09T19:43:13.375Z,101254.61
2022-10-09T19:48:17.746Z,101255.96
2022-10-09T19:53:20.696Z,101253.86
2022-10-09T19:58:23.495Z,101258.58
2022-10-09T20:03:26.319Z,101260.67
2022-10-09T20:08:29.305Z,101260.86
2022-10-09T20:13:37.792Z,101273.03
2022-10-09T20:18:42.407Z,101268.98
2022-10-09T20:23:45.490Z,101270.20
2022-10-09T20:28:49.004Z,101272.86
2022-10-09T20:33:53.142Z,101273.96
2022-10-09T20:38:58.360Z,101273.77
2022-10-09T20:44:02.265Z,101274.31
2022-10-09T20:49:07.506Z,101280.02
2022-10-09T20:54:16.360Z,101277.11
2022-10-09T20:59:19.336Z,101284.71
2022-10-09T21:04:22.243Z,101277.83
2022-10-09T21:09:27.530Z,101277.12
2022-10-09T21:14:33.987Z,101283.54
2022-10-09T21:19:36.790Z,101287.23
2022-10-09T21:24:39.702Z,101285.15
2022-10-09T21:29:42.732Z,101280.48
2022-10-09T21:34:46.013Z,101279.81
2022-10-09T21:39:48.817Z,101279.59
2022-10-09T21:44:51.721Z,101282.14
2022-10-09T21:49:54.622Z,101283.80
2022-10-09T21:54:57.528Z,101290.69
2022-10-09T22:00:00.641Z,101290.73
2022-10-09T22:05:04.161Z,101295.06
2022-10-09T22:10:07.674Z,101299.62
2022-10-09T22:15:10.924Z,101295.47
2022-10-09T22:20:13.788Z,101296.53
2022-10-09T22:25:17.107Z,101292.58
2022-10-09T22:30:20.110Z,101296.45
2022-10-09T22:35:23.468Z,101303.35
2022-10-09T22:40:26.325Z,101303.77
2022-10-09T22:45:29.130Z,101304.88
2022-10-09T22:50:31.927Z,101308.98
2022-10-09T22:55:34.936Z,101306.98
2022-10-09T23:00:38.314Z,101305.36
2022-10-09T23:05:41.150Z,101302.71
2022-10-09T23:10:43.994Z,101304.72
2022-10-09T23:15:47.061Z,101303.19
2022-10-09T23:20:49.868Z,101297.25
2022-10-09T23:25:52.771Z,101296.53
2022-10-09T23:31:11.563Z,101296.29
2022-10-09T23:36:17.316Z,101297.27
2022-10-09T23:41:22.680Z,101297.16
2022-10-09T23:46:33.063Z,101297.19
2022-10-09T23:51:35.963Z,101294.42
2022-10-09T23:56:38.867Z,101293.73
